sensor_id;sensor_type;location;lat;lon;timestamp;pressure;altitude;pressure_sealevel;temperature;humidity
46682;BME280;34101;53.430;-2.224;2022-08-19T00:00:33;157174.73;;;18.89;100.00
46682;BME280;34101;53.430;-2.224;2022-08-19T00:03:00;157201.53;;;19.00;100.00
46682;BME280;34101;53.430;-2.224;2022-08-19T00:05:27;157205.19;;;19.01;100.00
46682;BME280;34101;53.430;-2.224;2022-08-19T00:07:55;157189.27;;;18.95;100.00
46682;BME280;34101;53.430;-2.224;2022-08-19T00:10:22;157189.92;;;18.95;100.00
46682;BME280;34101;53.430;-2.224;2022-08-19T00:12:50;157203.40;;;19.00;100.00
46682;BME280;34101;53.430;-2.224;2022-08-19T00:15:20;157212.42;;;19.04;100.00
46682;BME280;34101;53.430;-2.224;2022-08-19T00:17:48;157188.94;;;18.94;100.00
46682;BME280;34101;53.430;-2.224;2022-08-19T00:20:19;157160.59;;;18.83;100.00
46682;BME280;34101;53.430;-2.224;2022-08-19T00:22:46;157176.19;;;18.89;100.00
46682;BME280;34101;53.430;-2.224;2022-08-19T00:25:15;157189.75;;;18.95;100.00
46682;BME280;34101;53.430;-2.224;2022-08-19T00:27:42;157201.21;;;18.99;100.00
46682;BME280;34101;53.430;-2.224;2022-08-19T00:30:10;157192.03;;;18.96;100.00
46682;BME280;34101;53.430;-2.224;2022-08-19T00:32:38;157192.52;;;18.96;100.00
46682;BME280;34101;53.430;-2.224;2022-08-19T00:35:07;157158.15;;;18.82;100.00
46682;BME280;34101;53.430;-2.224;2022-08-19T00:37:34;157160.75;;;18.83;100.00
46682;BME280;34101;53.430;-2.224;2022-08-19T00:40:04;157120.38;;;18.67;100.00
46682;BME280;34101;53.430;-2.224;2022-08-19T00:42:32;157128.50;;;18.70;100.00
46682;BME280;34101;53.430;-2.224;2022-08-19T00:45:00;157127.37;;;18.70;100.00
46682;BME280;34101;53.430;-2.224;2022-08-19T00:47:27;157122.58;;;18.68;100.00
46682;BME280;34101;53.430;-2.224;2022-08-19T00:49:57;157132.32;;;18.72;100.00
46682;BME280;34101;53.430;-2.224;2022-08-19T00:52:27;157116.56;;;18.65;100.00
46682;BME280;34101;53.430;-2.224;2022-08-19T00:54:57;157108.04;;;18.62;100.00
46682;BME280;34101;53.430;-2.224;2022-08-19T00:57:29;157111.29;;;18.63;100.00
46682;BME280;34101;53.430;-2.224;2022-08-19T00:59:58;157112.26;;;18.64;100.00
46682;BME280;34101;53.430;-2.224;2022-08-19T01:02:27;157098.61;;;18.58;100.00
46682;BME280;34101;53.430;-2.224;2022-08-19T01:04:54;157111.53;;;18.63;100.00
46682;BME280;34101;53.430;-2.224;2022-08-19T01:07:23;157098.94;;;18.58;100.00
46682;BME280;34101;53.430;-2.224;2022-08-19T01:09:50;157080.58;;;18.51;100.00
46682;BME280;34101;53.430;-2.224;2022-08-19T01:12:19;157066.45;;;18.45;100.00
46682;BME280;34101;53.430;-2.224;2022-08-19T01:14:46;157057.36;;;18.42;100.00
46682;BME280;34101;53.430;-2.224;2022-08-19T01:17:15;157058.66;;;18.42;100.00
46682;BME280;34101;53.430;-2.224;2022-08-19T01:19:45;157026.25;;;18.29;100.00
46682;BME280;34101;53.430;-2.224;2022-08-19T01:22:19;157032.91;;;18.32;100.00
46682;BME280;34101;53.430;-2.224;2022-08-19T01:24:48;157026.33;;;18.29;100.00
46682;BME280;34101;53.430;-2.224;2022-08-19T01:27:16;156987.92;;;18.14;100.00
46682;BME280;34101;53.430;-2.224;2022-08-19T01:29:44;156973.14;;;18.08;100.00
46682;BME280;34101;53.430;-2.224;2022-08-19T01:32:14;156948.70;;;17.98;100.00
46682;BME280;34101;53.430;-2.224;2022-08-19T01:34:42;156916.88;;;17.85;100.00
46682;BME280;34101;53.430;-2.224;2022-08-19T01:37:11;156959.83;;;18.03;100.00
46682;BME280;34101;53.430;-2.224;2022-08-19T01:39:39;156948.22;;;17.98;100.00
46682;BME280;34101;53.430;-2.224;2022-08-19T01:42:08;156958.61;;;18.02;100.00
46682;BME280;34101;53.430;-2.224;2022-08-19T01:44:36;156952.20;;;18.00;100.00
46682;BME280;34101;53.430;-2.224;2022-08-19T01:47:05;156948.95;;;17.98;100.00
46682;BME280;34101;53.430;-2.224;2022-08-19T01:49:32;156928.81;;;17.90;100.00
46682;BME280;34101;53.430;-2.224;2022-08-19T01:52:00;156903.72;;;17.80;100.00
46682;BME280;34101;53.430;-2.224;2022-08-19T01:54:28;156866.30;;;17.65;100.00
46682;BME280;34101;53.430;-2.224;2022-08-19T01:56:59;156838.62;;;17.54;100.00
46682;BME280;34101;53.430;-2.224;2022-08-19T01:59:28;156821.25;;;17.47;100.00
46682;BME280;34101;53.430;-2.224;2022-08-19T02:01:55;156786.99;;;17.33;100.00
46682;BME280;34101;53.430;-2.224;2022-08-19T02:04:22;156768.33;;;17.26;100.00
46682;BME280;34101;53.430;-2.224;2022-08-19T02:06:49;156750.71;;;17.19;100.00
46682;BME280;34101;53.430;-2.224;2022-08-19T02:09:17;156738.30;;;17.14;100.00
46682;BME280;34101;53.430;-2.224;2022-08-19T02:11:44;156714.11;;;17.04;100.00
46682;BME280;34101;53.430;-2.224;2022-08-19T02:14:12;156705.51;;;17.01;100.00
46682;BME280;34101;53.430;-2.224;2022-08-19T02:16:39;156701.37;;;16.99;100.00
46682;BME280;34101;53.430;-2.224;2022-08-19T02:19:07;156715.90;;;17.05;100.00
46682;BME280;34101;53.430;-2.224;2022-08-19T02:21:35;156718.82;;;17.06;100.00
46682;BME280;34101;53.430;-2.224;2022-08-19T02:24:03;156711.68;;;17.03;100.00
46682;BME280;34101;53.430;-2.224;2022-08-19T02:26:32;156683.76;;;16.92;100.00
46682;BME280;34101;53.430;-2.224;2022-08-19T02:28:59;156672.64;;;16.87;100.00
46682;BME280;34101;53.430;-2.224;2022-08-19T02:31:27;156622.50;;;16.67;100.00
46682;BME280;34101;53.430;-2.224;2022-08-19T02:33:55;156631.51;;;16.71;100.00
46682;BME280;34101;53.430;-2.224;2022-08-19T02:36:23;156630.53;;;16.70;100.00
46682;BME280;34101;53.430;-2.224;2022-08-19T02:38:50;156627.53;;;16.69;100.00
46682;BME280;34101;53.430;-2.224;2022-08-19T02:41:20;156621.36;;;16.67;100.00
46682;BME280;34101;53.430;-2.224;2022-08-19T02:43:49;156613.82;;;16.64;100.00
46682;BME280;34101;53.430;-2.224;2022-08-19T02:46:18;156611.06;;;16.63;100.00
46682;BME280;34101;53.430;-2.224;2022-08-19T02:48:46;156603.35;;;16.60;100.00
46682;BME280;34101;53.430;-2.224;2022-08-19T02:51:17;156591.26;;;16.55;100.00
46682;BME280;34101;53.430;-2.224;2022-08-19T02:53:45;156583.72;;;16.52;100.00
46682;BME280;34101;53.430;-2.224;2022-08-19T02:56:12;156586.07;;;16.53;100.00
46682;BME280;34101;53.430;-2.224;2022-08-19T02:58:40;156583.47;;;16.52;100.00
46682;BME280;34101;53.430;-2.224;2022-08-19T03:01:08;156587.29;;;16.53;100.00
46682;BME280;34101;53.430;-2.224;2022-08-19T03:03:35;156599.30;;;16.58;100.00
46682;BME280;34101;53.430;-2.224;2022-08-19T03:06:05;156610.98;;;16.63;100.00
46682;BME280;34101;53.430;-2.224;2022-08-19T03:08:32;156610.90;;;16.63;100.00
46682;BME280;34101;53.430;-2.224;2022-08-19T03:11:00;156624.77;;;16.68;100.00
46682;BME280;34101;53.430;-2.224;2022-08-19T03:13:27;156628.58;;;16.70;100.00
46682;BME280;34101;53.430;-2.224;2022-08-19T03:15:54;156631.42;;;16.71;100.00
46682;BME280;34101;53.430;-2.224;2022-08-19T03:18:22;156635.16;;;16.72;100.00
46682;BME280;34101;53.430;-2.224;2022-08-19T03:20:51;156628.42;;;16.70;100.00
46682;BME280;34101;53.430;-2.224;2022-08-19T03:23:18;156621.36;;;16.67;100.00
46682;BME280;34101;53.430;-2.224;2022-08-19T03:25:47;156611.22;;;16.63;100.00
46682;BME280;34101;53.430;-2.224;2022-08-19T03:28:15;156602.62;;;16.59;100.00
46682;BME280;34101;53.430;-2.224;2022-08-19T03:30:53;156601.65;;;16.59;100.00
46682;BME280;34101;53.430;-2.224;2022-08-19T03:33:21;156597.92;;;16.57;100.00
46682;BME280;34101;53.430;-2.224;2022-08-19T03:36:00;156570.58;;;16.46;100.00
46682;BME280;34101;53.430;-2.224;2022-08-19T03:38:28;156536.18;;;16.33;100.00
46682;BME280;34101;53.430;-2.224;2022-08-19T03:40:55;156522.15;;;16.27;100.00
46682;BME280;34101;53.430;-2.224;2022-08-19T03:43:22;156489.70;;;16.14;100.00
46682;BME280;34101;53.430;-2.224;2022-08-19T03:46:00;156476.48;;;16.09;100.00
46682;BME280;34101;53.430;-2.224;2022-08-19T03:48:28;156456.85;;;16.01;100.00
46682;BME280;34101;53.430;-2.224;2022-08-19T03:50:55;156439.33;;;15.94;100.00
46682;BME280;34101;53.430;-2.224;2022-08-19T03:53:22;156443.71;;;15.95;100.00
46682;BME280;34101;53.430;-2.224;2022-08-19T03:55:49;156466.91;;;16.05;100.00
46682;BME280;34101;53.430;-2.224;2022-08-19T03:58:17;156499.60;;;16.18;100.00
46682;BME280;34101;53.430;-2.224;2022-08-19T04:00:45;156529.61;;;16.30;100.00
46682;BME280;34101;53.430;-2.224;2022-08-19T04:03:12;156535.94;;;16.32;100.00
46682;BME280;34101;53.430;-2.224;2022-08-19T04:05:39;156542.51;;;16.35;100.00
46682;BME280;34101;53.430;-2.224;2022-08-19T04:08:07;156550.86;;;16.38;100.00
46682;BME280;34101;53.430;-2.224;2022-08-19T04:10:35;156539.42;;;16.34;100.00
46682;BME280;34101;53.430;-2.224;2022-08-19T04:13:03;156515.57;;;16.24;100.00
46682;BME280;34101;53.430;-2.224;2022-08-19T04:15:30;156487.35;;;16.13;100.00
46682;BME280;34101;53.430;-2.224;2022-08-19T04:17:57;156452.55;;;15.99;100.00
46682;BME280;34101;53.430;-2.224;2022-08-19T04:20:25;156417.92;;;15.85;100.00
46682;BME280;34101;53.430;-2.224;2022-08-19T04:22:52;156378.35;;;15.69;100.00
46682;BME280;34101;53.430;-2.224;2022-08-19T04:25:19;156352.16;;;15.59;100.00
46682;BME280;34101;53.430;-2.224;2022-08-19T04:27:47;156331.88;;;15.51;100.00
46682;BME280;34101;53.430;-2.224;2022-08-19T04:30:14;156319.80;;;15.46;100.00
46682;BME280;34101;53.430;-2.224;2022-08-19T04:32:41;156316.24;;;15.44;100.00
46682;BME280;34101;53.430;-2.224;2022-08-19T04:35:09;156313.56;;;15.43;100.00
46682;BME280;34101;53.430;-2.224;2022-08-19T04:37:36;156299.53;;;15.38;100.00
46682;BME280;34101;53.430;-2.224;2022-08-19T04:40:06;156288.51;;;15.33;100.00
46682;BME280;34101;53.430;-2.224;2022-08-19T04:42:34;156273.83;;;15.27;100.00
46682;BME280;34101;53.430;-2.224;2022-08-19T04:45:02;156251.46;;;15.18;100.00
46682;BME280;34101;53.430;-2.224;2022-08-19T04:47:29;156231.52;;;15.10;100.00
46682;BME280;34101;53.430;-2.224;2022-08-19T04:49:57;156199.50;;;14.97;100.00
46682;BME280;34101;53.430;-2.224;2022-08-19T04:52:24;156197.06;;;14.96;100.00
46682;BME280;34101;53.430;-2.224;2022-08-19T04:54:52;156180.20;;;14.90;100.00
46682;BME280;34101;53.430;-2.224;2022-08-19T04:57:19;156175.18;;;14.88;100.00
46682;BME280;34101;53.430;-2.224;2022-08-19T04:59:46;156172.75;;;14.87;100.00
46682;BME280;34101;53.430;-2.224;2022-08-19T05:02:14;156161.08;;;14.82;100.00
46682;BME280;34101;53.430;-2.224;2022-08-19T05:04:41;156140.08;;;14.73;100.00
46682;BME280;34101;53.430;-2.224;2022-08-19T05:07:09;156103.62;;;14.59;100.00
46682;BME280;34101;53.430;-2.224;2022-08-19T05:09:36;156079.22;;;14.49;100.00
46682;BME280;34101;53.430;-2.224;2022-08-19T05:12:04;156074.85;;;14.47;100.00
46682;BME280;34101;53.430;-2.224;2022-08-19T05:14:31;156063.02;;;14.43;100.00
46682;BME280;34101;53.430;-2.224;2022-08-19T05:16:58;156049.73;;;14.37;100.00
46682;BME280;34101;53.430;-2.224;2022-08-19T05:19:25;156061.48;;;14.42;100.00
46682;BME280;34101;53.430;-2.224;2022-08-19T05:21:53;156055.97;;;14.40;100.00
46682;BME280;34101;53.430;-2.224;2022-08-19T05:24:22;156054.26;;;14.39;100.00
46682;BME280;34101;53.430;-2.224;2022-08-19T05:26:51;156038.14;;;14.33;100.00
46682;BME280;34101;53.430;-2.224;2022-08-19T05:29:20;156054.99;;;14.39;100.00
46682;BME280;34101;53.430;-2.224;2022-08-19T05:31:49;156072.82;;;14.46;100.00
46682;BME280;34101;53.430;-2.224;2022-08-19T05:34:17;156081.17;;;14.50;100.00
46682;BME280;34101;53.430;-2.224;2022-08-19T05:36:45;156109.61;;;14.61;100.00
46682;BME280;34101;53.430;-2.224;2022-08-19T05:39:14;156146.73;;;14.76;100.00
46682;BME280;34101;53.430;-2.224;2022-08-19T05:41:42;156154.27;;;14.79;100.00
46682;BME280;34101;53.430;-2.224;2022-08-19T05:44:09;156102.89;;;14.59;100.00
46682;BME280;34101;53.430;-2.224;2022-08-19T05:46:38;156078.33;;;14.49;100.00
46682;BME280;34101;53.430;-2.224;2022-08-19T05:49:06;156014.32;;;14.23;100.00
46682;BME280;34101;53.430;-2.224;2022-08-19T05:51:35;156044.78;;;14.35;100.00
46682;BME280;34101;53.430;-2.224;2022-08-19T05:54:04;156020.15;;;14.25;100.00
46682;BME280;34101;53.430;-2.224;2022-08-19T05:56:32;156025.99;;;14.28;100.00
46682;BME280;34101;53.430;-2.224;2022-08-19T05:59:00;156043.73;;;14.35;100.00
46682;BME280;34101;53.430;-2.224;2022-08-19T06:01:28;156059.53;;;14.41;100.00
46682;BME280;34101;53.430;-2.224;2022-08-19T06:03:55;156083.36;;;14.51;100.00
46682;BME280;34101;53.430;-2.224;2022-08-19T06:06:22;156092.27;;;14.54;100.00
46682;BME280;34101;53.430;-2.224;2022-08-19T06:08:50;156095.02;;;14.55;100.00
46682;BME280;34101;53.430;-2.224;2022-08-19T06:11:20;156094.94;;;14.55;100.00
46682;BME280;34101;53.430;-2.224;2022-08-19T06:13:49;156094.70;;;14.55;100.00
46682;BME280;34101;53.430;-2.224;2022-08-19T06:16:17;156077.76;;;14.48;100.00
46682;BME280;34101;53.430;-2.224;2022-08-19T06:18:44;156071.04;;;14.46;100.00
46682;BME280;34101;53.430;-2.224;2022-08-19T06:21:12;156095.19;;;14.55;100.00
46682;BME280;34101;53.430;-2.224;2022-08-19T06:23:39;156059.61;;;14.41;100.00
46682;BME280;34101;53.430;-2.224;2022-08-19T06:26:11;156073.39;;;14.47;100.00
46682;BME280;34101;53.430;-2.224;2022-08-19T06:28:38;156114.15;;;14.63;100.00
46682;BME280;34101;53.430;-2.224;2022-08-19T06:31:07;156152.40;;;14.78;100.00
46682;BME280;34101;53.430;-2.224;2022-08-19T06:33:34;156151.03;;;14.78;100.00
46682;BME280;34101;53.430;-2.224;2022-08-19T06:36:04;156136.28;;;14.72;100.00
46682;BME280;34101;53.430;-2.224;2022-08-19T06:38:32;156167.16;;;14.84;100.00
46682;BME280;34101;53.430;-2.224;2022-08-19T06:41:01;156185.88;;;14.92;100.00
46682;BME280;34101;53.430;-2.224;2022-08-19T06:43:28;156197.15;;;14.96;100.00
46682;BME280;34101;53.430;-2.224;2022-08-19T06:45:56;156182.23;;;14.90;100.00
46682;BME280;34101;53.430;-2.224;2022-08-19T06:48:23;156231.19;;;15.10;100.00
46682;BME280;34101;53.430;-2.224;2022-08-19T06:50:50;156219.11;;;15.05;100.00
46682;BME280;34101;53.430;-2.224;2022-08-19T06:53:18;156245.62;;;15.16;100.00
46682;BME280;34101;53.430;-2.224;2022-08-19T06:55:45;156286.64;;;15.32;100.00
46682;BME280;34101;53.430;-2.224;2022-08-19T06:58:12;156289.16;;;15.33;100.00
46682;BME280;34101;53.430;-2.224;2022-08-19T07:00:40;156304.56;;;15.40;100.00
46682;BME280;34101;53.430;-2.224;2022-08-19T07:03:07;156284.37;;;15.31;100.00
46682;BME280;34101;53.430;-2.224;2022-08-19T07:05:39;156326.21;;;15.48;100.00
46682;BME280;34101;53.430;-2.224;2022-08-19T07:08:06;156353.37;;;15.59;100.00
46682;BME280;34101;53.430;-2.224;2022-08-19T07:10:34;156380.70;;;15.70;100.00
46682;BME280;34101;53.430;-2.224;2022-08-19T07:13:01;156391.08;;;15.74;100.00
46682;BME280;34101;53.430;-2.224;2022-08-19T07:15:29;156359.86;;;15.62;100.00
46682;BME280;34101;53.430;-2.224;2022-08-19T07:17:56;156378.35;;;15.69;100.00
46682;BME280;34101;53.430;-2.224;2022-08-19T07:20:23;156381.35;;;15.70;100.00
46682;BME280;34101;53.430;-2.224;2022-08-19T07:22:51;156419.06;;;15.86;100.00
46682;BME280;34101;53.430;-2.224;2022-08-19T07:25:18;156433.65;;;15.91;100.00
46682;BME280;34101;53.430;-2.224;2022-08-19T07:27:45;156493.02;;;16.15;100.00
46682;BME280;34101;53.430;-2.224;2022-08-19T07:30:15;156557.11;;;16.41;100.00
46682;BME280;34101;53.430;-2.224;2022-08-19T07:32:43;156554.27;;;16.40;100.00
46682;BME280;34101;53.430;-2.224;2022-08-19T07:35:10;156595.48;;;16.56;100.00
46682;BME280;34101;53.430;-2.224;2022-08-19T07:37:37;156569.76;;;16.46;100.00
46682;BME280;34101;53.430;-2.224;2022-08-19T07:40:07;156606.60;;;16.61;100.00
46682;BME280;34101;53.430;-2.224;2022-08-19T07:42:34;156643.60;;;16.76;100.00
46682;BME280;34101;53.430;-2.224;2022-08-19T07:45:02;156657.63;;;16.81;100.00
46682;BME280;34101;53.430;-2.224;2022-08-19T07:47:29;156647.17;;;16.77;100.00
46682;BME280;34101;53.430;-2.224;2022-08-19T07:49:57;156650.82;;;16.79;100.00
46682;BME280;34101;53.430;-2.224;2022-08-19T07:52:25;156720.52;;;17.07;100.00
46682;BME280;34101;53.430;-2.224;2022-08-19T07:54:52;156756.56;;;17.21;100.00
46682;BME280;34101;53.430;-2.224;2022-08-19T07:57:19;156824.49;;;17.48;100.00
46682;BME280;34101;53.430;-2.224;2022-08-19T07:59:47;156848.20;;;17.58;100.00
46682;BME280;34101;53.430;-2.224;2022-08-19T08:02:14;156858.26;;;17.62;100.00
46682;BME280;34101;53.430;-2.224;2022-08-19T08:04:41;156892.28;;;17.75;100.00
46682;BME280;34101;53.430;-2.224;2022-08-19T08:07:09;156823.84;;;17.48;100.00
46682;BME280;34101;53.430;-2.224;2022-08-19T08:09:39;156801.52;;;17.39;100.00
46682;BME280;34101;53.430;-2.224;2022-08-19T08:12:09;156870.44;;;17.67;100.00
46682;BME280;34101;53.430;-2.224;2022-08-19T08:14:38;156962.18;;;18.04;100.00
46682;BME280;34101;53.430;-2.224;2022-08-19T08:17:07;157105.44;;;18.61;100.00
46682;BME280;34101;53.430;-2.224;2022-08-19T08:19:35;157350.71;;;19.59;93.09
46682;BME280;34101;53.430;-2.224;2022-08-19T08:22:03;157615.63;;;20.65;85.72
46682;BME280;34101;53.430;-2.224;2022-08-19T08:24:31;157777.22;;;21.30;79.49
46682;BME280;34101;53.430;-2.224;2022-08-19T08:26:59;157772.01;;;21.28;75.29
46682;BME280;34101;53.430;-2.224;2022-08-19T08:29:29;157670.35;;;20.87;73.14
46682;BME280;34101;53.430;-2.224;2022-08-19T08:31:57;157566.93;;;20.46;74.55
46682;BME280;34101;53.430;-2.224;2022-08-19T08:34:25;157666.45;;;20.86;72.35
46682;BME280;34101;53.430;-2.224;2022-08-19T08:36:52;157707.92;;;21.02;68.78
46682;BME280;34101;53.430;-2.224;2022-08-19T08:39:20;157656.69;;;20.82;66.98
46682;BME280;34101;53.430;-2.224;2022-08-19T08:41:53;157900.13;;;21.79;64.95
46682;BME280;34101;53.430;-2.224;2022-08-19T08:44:29;157901.84;;;21.80;58.45
46682;BME280;34101;53.430;-2.224;2022-08-19T08:47:03;158119.19;;;22.67;52.90
46682;BME280;34101;53.430;-2.224;2022-08-19T08:49:40;158184.39;;;22.93;52.74
46682;BME280;34101;53.430;-2.224;2022-08-19T08:52:13;158296.58;;;23.38;48.12
46682;BME280;34101;53.430;-2.224;2022-08-19T08:54:45;158474.51;;;24.09;43.60
46682;BME280;34101;53.430;-2.224;2022-08-19T08:57:17;158634.26;;;24.73;41.90
46682;BME280;34101;53.430;-2.224;2022-08-19T08:59:48;158673.29;;;24.89;41.03
46682;BME280;34101;53.430;-2.224;2022-08-19T09:02:17;158304.15;;;23.41;42.22
46682;BME280;34101;53.430;-2.224;2022-08-19T09:04:46;158328.58;;;23.51;42.36
46682;BME280;34101;53.430;-2.224;2022-08-19T09:07:39;157974.01;;;22.09;45.05
46682;BME280;34101;53.430;-2.224;2022-08-19T09:10:17;158063.93;;;22.45;44.49
46682;BME280;34101;53.430;-2.224;2022-08-19T09:12:56;158250.74;;;23.20;43.54
46682;BME280;34101;53.430;-2.224;2022-08-19T09:15:34;158371.17;;;23.68;40.90
46682;BME280;34101;53.430;-2.224;2022-08-19T09:18:04;158317.67;;;23.46;41.97
46682;BME280;34101;53.430;-2.224;2022-08-19T09:20:32;158106.25;;;22.62;43.39
46682;BME280;34101;53.430;-2.224;2022-08-19T09:23:00;157911.93;;;21.84;44.69
46682;BME280;34101;53.430;-2.224;2022-08-19T09:25:27;158027.80;;;22.30;45.36
46682;BME280;34101;53.430;-2.224;2022-08-19T09:27:55;158270.53;;;23.28;43.19
46682;BME280;34101;53.430;-2.224;2022-08-19T09:30:26;158246.35;;;23.18;43.45
46682;BME280;34101;53.430;-2.224;2022-08-19T09:32:54;158250.82;;;23.20;41.80
46682;BME280;34101;53.430;-2.224;2022-08-19T09:35:24;158317.59;;;23.46;41.20
46682;BME280;34101;53.430;-2.224;2022-08-19T09:37:52;158408.14;;;23.83;40.52
46682;BME280;34101;53.430;-2.224;2022-08-19T09:40:19;158382.81;;;23.72;41.19
46682;BME280;34101;53.430;-2.224;2022-08-19T09:42:47;158308.22;;;23.43;42.36
46682;BME280;34101;53.430;-2.224;2022-08-19T09:45:15;158473.37;;;24.09;41.28
46682;BME280;34101;53.430;-2.224;2022-08-19T09:47:42;158546.85;;;24.38;39.96
46682;BME280;34101;53.430;-2.224;2022-08-19T09:50:11;158504.16;;;24.21;39.98
46682;BME280;34101;53.430;-2.224;2022-08-19T09:52:39;158462.46;;;24.04;40.48
46682;BME280;34101;53.430;-2.224;2022-08-19T09:55:09;158750.53;;;25.20;38.34
46682;BME280;34101;53.430;-2.224;2022-08-19T09:57:37;158482.25;;;24.12;39.88
46682;BME280;34101;53.430;-2.224;2022-08-19T10:00:10;158359.36;;;23.63;41.13
46682;BME280;34101;53.430;-2.224;2022-08-19T10:02:37;158429.64;;;23.91;40.55
46682;BME280;34101;53.430;-2.224;2022-08-19T10:05:05;158444.22;;;23.97;40.62
46682;BME280;34101;53.430;-2.224;2022-08-19T10:07:32;158329.56;;;23.51;41.90
46682;BME280;34101;53.430;-2.224;2022-08-19T10:10:00;158628.64;;;24.71;40.32
46682;BME280;34101;53.430;-2.224;2022-08-19T10:12:27;158621.14;;;24.68;40.40
46682;BME280;34101;53.430;-2.224;2022-08-19T10:14:54;158934.82;;;25.93;38.28
46682;BME280;34101;53.430;-2.224;2022-08-19T10:17:22;158909.71;;;25.83;36.89
46682;BME280;34101;53.430;-2.224;2022-08-19T10:19:49;159190.19;;;26.95;36.03
46682;BME280;34101;53.430;-2.224;2022-08-19T10:22:18;159337.09;;;27.54;34.45
46682;BME280;34101;53.430;-2.224;2022-08-19T10:24:46;159281.54;;;27.32;34.59
46682;BME280;34101;53.430;-2.224;2022-08-19T10:27:13;159259.84;;;27.23;34.08
46682;BME280;34101;53.430;-2.224;2022-08-19T10:29:41;159122.67;;;26.68;35.90
46682;BME280;34101;53.430;-2.224;2022-08-19T10:32:08;159145.50;;;26.77;34.70
46682;BME280;34101;53.430;-2.224;2022-08-19T10:34:37;158627.74;;;24.70;38.55
46682;BME280;34101;53.430;-2.224;2022-08-19T10:37:05;158562.97;;;24.45;39.31
46682;BME280;34101;53.430;-2.224;2022-08-19T10:39:33;158499.03;;;24.19;40.25
46682;BME280;34101;53.430;-2.224;2022-08-19T10:42:05;158434.52;;;23.93;41.25
46682;BME280;34101;53.430;-2.224;2022-08-19T10:44:33;158235.35;;;23.14;42.67
46682;BME280;34101;53.430;-2.224;2022-08-19T10:47:00;158221.03;;;23.08;43.38
46682;BME280;34101;53.430;-2.224;2022-08-19T10:49:28;158280.30;;;23.31;42.64
46682;BME280;34101;53.430;-2.224;2022-08-19T10:51:55;158119.93;;;22.67;43.83
46682;BME280;34101;53.430;-2.224;2022-08-19T10:54:22;158281.03;;;23.32;43.24
46682;BME280;34101;53.430;-2.224;2022-08-19T10:56:50;158194.73;;;22.97;43.49
46682;BME280;34101;53.430;-2.224;2022-08-19T10:59:19;158029.67;;;22.31;44.36
46682;BME280;34101;53.430;-2.224;2022-08-19T11:01:47;158000.78;;;22.20;45.90
46682;BME280;34101;53.430;-2.224;2022-08-19T11:04:15;158054.57;;;22.41;45.25
46682;BME280;34101;53.430;-2.224;2022-08-19T11:06:44;158359.11;;;23.63;42.07
46682;BME280;34101;53.430;-2.224;2022-08-19T11:09:11;158572.42;;;24.48;38.91
46682;BME280;34101;53.430;-2.224;2022-08-19T11:11:39;158544.81;;;24.37;39.08
46682;BME280;34101;53.430;-2.224;2022-08-19T11:14:07;158214.60;;;23.05;40.80
46682;BME280;34101;53.430;-2.224;2022-08-19T11:16:35;158162.58;;;22.84;40.48
46682;BME280;34101;53.430;-2.224;2022-08-19T11:19:03;158170.80;;;22.88;40.48
46682;BME280;34101;53.430;-2.224;2022-08-19T11:21:32;158361.31;;;23.64;39.45
46682;BME280;34101;53.430;-2.224;2022-08-19T11:24:02;158489.42;;;24.15;37.86
46682;BME280;34101;53.430;-2.224;2022-08-19T11:26:31;158333.71;;;23.53;38.73
46682;BME280;34101;53.430;-2.224;2022-08-19T11:29:00;158311.81;;;23.44;39.23
46682;BME280;34101;53.430;-2.224;2022-08-19T11:31:29;158058.23;;;22.43;40.13
46682;BME280;34101;53.430;-2.224;2022-08-19T11:33:57;158093.96;;;22.57;42.16
46682;BME280;34101;53.430;-2.224;2022-08-19T11:36:26;157982.55;;;22.12;42.90
46682;BME280;34101;53.430;-2.224;2022-08-19T11:38:54;157949.36;;;21.99;43.76
46682;BME280;34101;53.430;-2.224;2022-08-19T11:41:23;157912.01;;;21.84;43.68
46682;BME280;34101;53.430;-2.224;2022-08-19T11:43:51;157923.48;;;21.89;43.34
46682;BME280;34101;53.430;-2.224;2022-08-19T11:46:19;157866.37;;;21.66;43.57
46682;BME280;34101;53.430;-2.224;2022-08-19T11:48:46;157869.87;;;21.67;43.06
46682;BME280;34101;53.430;-2.224;2022-08-19T11:51:16;157804.30;;;21.41;42.98
46682;BME280;34101;53.430;-2.224;2022-08-19T11:53:44;157873.61;;;21.69;43.36
46682;BME280;34101;53.430;-2.224;2022-08-19T11:56:12;157691.01;;;20.96;44.43
46682;BME280;34101;53.430;-2.224;2022-08-19T11:58:39;157760.30;;;21.23;44.31
46682;BME280;34101;53.430;-2.224;2022-08-19T12:01:07;157994.52;;;22.17;43.89
46682;BME280;34101;53.430;-2.224;2022-08-19T12:03:35;158126.93;;;22.70;41.26
46682;BME280;34101;53.430;-2.224;2022-08-19T12:06:05;158025.76;;;22.30;42.07
46682;BME280;34101;53.430;-2.224;2022-08-19T12:08:33;158047.98;;;22.39;41.96
46682;BME280;34101;53.430;-2.224;2022-08-19T12:11:00;158094.70;;;22.57;42.44
46682;BME280;34101;53.430;-2.224;2022-08-19T12:13:28;157931.62;;;21.92;43.67
46682;BME280;34101;53.430;-2.224;2022-08-19T12:15:56;158027.88;;;22.30;41.74
46682;BME280;34101;53.430;-2.224;2022-08-19T12:18:23;158002.82;;;22.20;42.10
46682;BME280;34101;53.430;-2.224;2022-08-19T12:20:51;158162.01;;;22.84;42.22
46682;BME280;34101;53.430;-2.224;2022-08-19T12:23:19;158200.27;;;22.99;41.79
46682;BME280;34101;53.430;-2.224;2022-08-19T12:25:48;158189.12;;;22.95;42.47
46682;BME280;34101;53.430;-2.224;2022-08-19T12:28:16;158266.70;;;23.26;40.78
46682;BME280;34101;53.430;-2.224;2022-08-19T12:30:43;158226.56;;;23.10;40.90
46682;BME280;34101;53.430;-2.224;2022-08-19T12:33:11;158155.33;;;22.81;41.73
46682;BME280;34101;53.430;-2.224;2022-08-19T12:35:39;158033.66;;;22.33;41.91
46682;BME280;34101;53.430;-2.224;2022-08-19T12:38:06;157910.06;;;21.83;43.13